Skip Navigation Links Skip Navigation Links

Current Weather

Cherry Capital, Traverse City, Mich.

For information only: do not use for flight planning or navigation.
Latest weather
Observation time Friday, May 14, 2021 7:53 AM EDT
Local time Friday, May 14, 2021 8:41 AM EDT
Flight conditions Visual Meteorological Conditions
Winds
Wind speed calm
Visibility 10 mi.
Sky condition
Ceiling unlimited
Cloud layer scattered clouds 14,000 ft.
Temperature 50°F
Dewpoint 32°F
Altimeter 30.28 in.Hg
Pressure change last 3 hours-0.01 in.Hg
Pressure rising more quickly
Derived measurements
Relative humidity 50%
Wind chill 50°F
Density altitude -290 ft.
Sea-level pressure 30.28 in.Hg
Climate data
Temperature minimum, last 6 hours 37°F
Temperature maximum, last 6 hours 50°F
Remarks
Automated weather observing station with precipitation discriminator.
METAR KTVC 141153Z 00000KT 10SM SCT140 10/00 A3028 RMK AO2 SLP255 T01000000 10100 20028 53004

Settings

Location code

InnerDrive.Weather 4.0.6770.0 Release CLR 4.0.30319.42000
Copyright ©2018 Inner Drive Technology. All rights reserved. Portions Copyright ©1986-2018 David Braverman.

Find weather

Site navigation


Skip Navigation Links

Place info

Page info

PayPal - The safer, easier way to pay online!

Return home.

Copyright ©2021 Inner Drive Technology. Purveyors of fine, hand-crafted computer software. Page printed 2021-05-14T12:41:45 UTC.